sensor_id;sensor_type;location;lat;lon;timestamp;P1;durP1;ratioP1;P2;durP2;ratioP2
78796;SDS011;68145;52.514;13.460;2023-04-25T00:00:26;4.07;;;2.95;;
78796;SDS011;68145;52.514;13.460;2023-04-25T00:02:52;10.07;;;3.30;;
78796;SDS011;68145;52.514;13.460;2023-04-25T00:05:18;4.50;;;2.88;;
78796;SDS011;68145;52.514;13.460;2023-04-25T00:07:44;3.88;;;2.70;;
78796;SDS011;68145;52.514;13.460;2023-04-25T00:10:11;7.10;;;2.97;;
78796;SDS011;68145;52.514;13.460;2023-04-25T00:12:37;4.35;;;2.63;;
78796;SDS011;68145;52.514;13.460;2023-04-25T00:15:04;4.28;;;2.55;;
78796;SDS011;68145;52.514;13.460;2023-04-25T00:17:30;5.03;;;2.80;;
78796;SDS011;68145;52.514;13.460;2023-04-25T00:19:56;7.10;;;3.10;;
78796;SDS011;68145;52.514;13.460;2023-04-25T00:22:23;6.43;;;2.80;;
78796;SDS011;68145;52.514;13.460;2023-04-25T00:24:49;4.43;;;2.60;;
78796;SDS011;68145;52.514;13.460;2023-04-25T00:27:15;4.63;;;2.10;;
78796;SDS011;68145;52.514;13.460;2023-04-25T00:29:41;4.18;;;2.83;;
78796;SDS011;68145;52.514;13.460;2023-04-25T00:32:07;6.05;;;2.30;;
78796;SDS011;68145;52.514;13.460;2023-04-25T00:34:33;6.43;;;2.60;;
78796;SDS011;68145;52.514;13.460;2023-04-25T00:36:59;4.38;;;2.40;;
78796;SDS011;68145;52.514;13.460;2023-04-25T00:39:27;5.43;;;2.63;;
78796;SDS011;68145;52.514;13.460;2023-04-25T00:41:54;6.25;;;2.53;;
78796;SDS011;68145;52.514;13.460;2023-04-25T00:44:20;7.80;;;2.60;;
78796;SDS011;68145;52.514;13.460;2023-04-25T00:46:47;4.75;;;2.70;;
78796;SDS011;68145;52.514;13.460;2023-04-25T00:49:14;6.85;;;2.60;;
78796;SDS011;68145;52.514;13.460;2023-04-25T00:51:41;5.65;;;2.30;;
78796;SDS011;68145;52.514;13.460;2023-04-25T00:54:09;4.50;;;2.55;;
78796;SDS011;68145;52.514;13.460;2023-04-25T00:56:35;4.78;;;2.40;;
78796;SDS011;68145;52.514;13.460;2023-04-25T00:59:01;6.70;;;2.85;;
78796;SDS011;68145;52.514;13.460;2023-04-25T01:01:27;6.00;;;2.63;;
78796;SDS011;68145;52.514;13.460;2023-04-25T01:03:53;4.18;;;2.35;;
78796;SDS011;68145;52.514;13.460;2023-04-25T01:06:19;5.55;;;2.42;;
78796;SDS011;68145;52.514;13.460;2023-04-25T01:08:47;7.43;;;2.60;;
78796;SDS011;68145;52.514;13.460;2023-04-25T01:11:13;4.60;;;2.63;;
78796;SDS011;68145;52.514;13.460;2023-04-25T01:13:39;5.32;;;2.75;;
78796;SDS011;68145;52.514;13.460;2023-04-25T01:16:05;5.82;;;3.03;;
78796;SDS011;68145;52.514;13.460;2023-04-25T01:18:31;6.18;;;2.53;;
78796;SDS011;68145;52.514;13.460;2023-04-25T01:21:05;6.55;;;2.58;;
78796;SDS011;68145;52.514;13.460;2023-04-25T01:23:32;7.40;;;3.05;;
78796;SDS011;68145;52.514;13.460;2023-04-25T01:25:59;7.55;;;3.05;;
78796;SDS011;68145;52.514;13.460;2023-04-25T01:28:25;11.07;;;3.65;;
78796;SDS011;68145;52.514;13.460;2023-04-25T01:30:51;5.93;;;2.38;;
78796;SDS011;68145;52.514;13.460;2023-04-25T01:33:17;7.63;;;4.20;;
78796;SDS011;68145;52.514;13.460;2023-04-25T01:35:45;5.95;;;2.78;;
78796;SDS011;68145;52.514;13.460;2023-04-25T01:38:12;5.88;;;2.80;;
78796;SDS011;68145;52.514;13.460;2023-04-25T01:40:38;5.13;;;2.50;;
78796;SDS011;68145;52.514;13.460;2023-04-25T01:43:04;7.68;;;3.05;;
78796;SDS011;68145;52.514;13.460;2023-04-25T01:45:30;8.07;;;3.10;;
78796;SDS011;68145;52.514;13.460;2023-04-25T01:47:58;6.30;;;2.83;;
78796;SDS011;68145;52.514;13.460;2023-04-25T01:50:24;5.80;;;2.70;;
78796;SDS011;68145;52.514;13.460;2023-04-25T01:52:50;5.65;;;3.00;;
78796;SDS011;68145;52.514;13.460;2023-04-25T01:55:16;8.23;;;2.50;;
78796;SDS011;68145;52.514;13.460;2023-04-25T01:57:42;7.10;;;2.75;;
78796;SDS011;68145;52.514;13.460;2023-04-25T02:00:08;4.90;;;2.72;;
78796;SDS011;68145;52.514;13.460;2023-04-25T02:02:35;5.45;;;2.63;;
78796;SDS011;68145;52.514;13.460;2023-04-25T02:05:01;6.80;;;2.60;;
78796;SDS011;68145;52.514;13.460;2023-04-25T02:07:27;7.82;;;2.72;;
78796;SDS011;68145;52.514;13.460;2023-04-25T02:09:53;9.07;;;3.10;;
78796;SDS011;68145;52.514;13.460;2023-04-25T02:12:19;7.80;;;2.90;;
78796;SDS011;68145;52.514;13.460;2023-04-25T02:14:45;7.63;;;3.25;;
78796;SDS011;68145;52.514;13.460;2023-04-25T02:17:11;8.02;;;3.28;;
78796;SDS011;68145;52.514;13.460;2023-04-25T02:19:38;4.95;;;3.30;;
78796;SDS011;68145;52.514;13.460;2023-04-25T02:22:04;7.10;;;3.15;;
78796;SDS011;68145;52.514;13.460;2023-04-25T02:24:30;5.82;;;3.60;;
78796;SDS011;68145;52.514;13.460;2023-04-25T02:29:24;5.60;;;3.13;;
78796;SDS011;68145;52.514;13.460;2023-04-25T02:31:50;7.30;;;3.72;;
78796;SDS011;68145;52.514;13.460;2023-04-25T02:34:16;8.60;;;3.33;;
78796;SDS011;68145;52.514;13.460;2023-04-25T02:36:42;6.65;;;3.75;;
78796;SDS011;68145;52.514;13.460;2023-04-25T02:39:08;6.35;;;3.35;;
78796;SDS011;68145;52.514;13.460;2023-04-25T02:41:35;5.53;;;3.35;;
78796;SDS011;68145;52.514;13.460;2023-04-25T02:44:01;6.10;;;3.53;;
78796;SDS011;68145;52.514;13.460;2023-04-25T02:46:27;5.40;;;3.15;;
78796;SDS011;68145;52.514;13.460;2023-04-25T02:48:53;5.95;;;3.45;;
78796;SDS011;68145;52.514;13.460;2023-04-25T02:51:19;7.07;;;3.45;;
78796;SDS011;68145;52.514;13.460;2023-04-25T02:53:45;7.47;;;3.50;;
78796;SDS011;68145;52.514;13.460;2023-04-25T02:56:11;6.55;;;3.38;;
78796;SDS011;68145;52.514;13.460;2023-04-25T02:58:37;10.05;;;3.20;;
78796;SDS011;68145;52.514;13.460;2023-04-25T03:01:03;5.82;;;3.65;;
78796;SDS011;68145;52.514;13.460;2023-04-25T03:03:29;6.03;;;3.50;;
78796;SDS011;68145;52.514;13.460;2023-04-25T03:05:55;7.30;;;3.55;;
78796;SDS011;68145;52.514;13.460;2023-04-25T03:08:21;7.25;;;4.20;;
78796;SDS011;68145;52.514;13.460;2023-04-25T03:10:48;6.78;;;3.75;;
78796;SDS011;68145;52.514;13.460;2023-04-25T03:15:42;9.40;;;3.97;;
78796;SDS011;68145;52.514;13.460;2023-04-25T03:18:08;7.20;;;3.72;;
78796;SDS011;68145;52.514;13.460;2023-04-25T03:20:34;7.63;;;3.78;;
78796;SDS011;68145;52.514;13.460;2023-04-25T03:23:00;6.07;;;3.45;;
78796;SDS011;68145;52.514;13.460;2023-04-25T03:25:26;6.55;;;3.53;;
78796;SDS011;68145;52.514;13.460;2023-04-25T03:27:52;8.18;;;3.28;;
78796;SDS011;68145;52.514;13.460;2023-04-25T03:30:18;6.68;;;3.65;;
78796;SDS011;68145;52.514;13.460;2023-04-25T03:32:44;8.10;;;3.95;;
78796;SDS011;68145;52.514;13.460;2023-04-25T03:35:10;7.45;;;3.88;;
78796;SDS011;68145;52.514;13.460;2023-04-25T03:37:36;9.50;;;4.18;;
78796;SDS011;68145;52.514;13.460;2023-04-25T03:40:02;10.98;;;4.85;;
78796;SDS011;68145;52.514;13.460;2023-04-25T03:42:29;7.72;;;4.75;;
78796;SDS011;68145;52.514;13.460;2023-04-25T03:44:55;9.98;;;4.30;;
78796;SDS011;68145;52.514;13.460;2023-04-25T03:47:21;7.03;;;3.58;;
78796;SDS011;68145;52.514;13.460;2023-04-25T03:49:47;10.10;;;3.53;;
78796;SDS011;68145;52.514;13.460;2023-04-25T03:52:16;7.22;;;3.83;;
78796;SDS011;68145;52.514;13.460;2023-04-25T03:54:42;5.13;;;3.50;;
78796;SDS011;68145;52.514;13.460;2023-04-25T03:57:08;7.88;;;4.28;;
78796;SDS011;68145;52.514;13.460;2023-04-25T03:59:35;9.38;;;3.90;;
78796;SDS011;68145;52.514;13.460;2023-04-25T04:02:01;6.53;;;3.30;;
78796;SDS011;68145;52.514;13.460;2023-04-25T04:04:27;10.68;;;3.72;;
78796;SDS011;68145;52.514;13.460;2023-04-25T04:06:53;6.68;;;3.63;;
78796;SDS011;68145;52.514;13.460;2023-04-25T04:09:20;5.63;;;3.38;;
78796;SDS011;68145;52.514;13.460;2023-04-25T04:11:46;6.53;;;3.70;;
78796;SDS011;68145;52.514;13.460;2023-04-25T04:14:12;6.50;;;3.58;;
78796;SDS011;68145;52.514;13.460;2023-04-25T04:16:38;7.70;;;3.70;;
78796;SDS011;68145;52.514;13.460;2023-04-25T04:19:04;7.82;;;3.67;;
78796;SDS011;68145;52.514;13.460;2023-04-25T04:21:30;9.35;;;3.65;;
78796;SDS011;68145;52.514;13.460;2023-04-25T04:23:57;8.38;;;3.80;;
78796;SDS011;68145;52.514;13.460;2023-04-25T04:28:51;6.95;;;3.78;;
78796;SDS011;68145;52.514;13.460;2023-04-25T04:31:22;4.90;;;3.47;;
78796;SDS011;68145;52.514;13.460;2023-04-25T04:33:48;7.28;;;3.45;;
78796;SDS011;68145;52.514;13.460;2023-04-25T04:36:15;7.70;;;3.70;;
78796;SDS011;68145;52.514;13.460;2023-04-25T04:38:45;6.57;;;3.53;;
78796;SDS011;68145;52.514;13.460;2023-04-25T04:41:11;10.13;;;3.90;;
78796;SDS011;68145;52.514;13.460;2023-04-25T04:43:37;9.82;;;3.28;;
78796;SDS011;68145;52.514;13.460;2023-04-25T04:46:04;9.68;;;4.50;;
78796;SDS011;68145;52.514;13.460;2023-04-25T04:48:33;10.63;;;3.83;;
78796;SDS011;68145;52.514;13.460;2023-04-25T04:50:59;7.05;;;3.50;;
78796;SDS011;68145;52.514;13.460;2023-04-25T04:53:25;7.32;;;3.55;;
78796;SDS011;68145;52.514;13.460;2023-04-25T04:55:52;7.65;;;3.50;;
78796;SDS011;68145;52.514;13.460;2023-04-25T04:58:18;9.73;;;3.22;;
78796;SDS011;68145;52.514;13.460;2023-04-25T05:00:44;10.13;;;3.53;;
78796;SDS011;68145;52.514;13.460;2023-04-25T05:03:11;7.30;;;3.40;;
78796;SDS011;68145;52.514;13.460;2023-04-25T05:05:38;6.95;;;3.83;;
78796;SDS011;68145;52.514;13.460;2023-04-25T05:08:05;5.97;;;3.50;;
78796;SDS011;68145;52.514;13.460;2023-04-25T05:10:31;6.88;;;2.85;;
78796;SDS011;68145;52.514;13.460;2023-04-25T05:12:57;6.93;;;3.60;;
78796;SDS011;68145;52.514;13.460;2023-04-25T05:15:23;6.35;;;3.88;;
78796;SDS011;68145;52.514;13.460;2023-04-25T05:17:49;7.07;;;3.65;;
78796;SDS011;68145;52.514;13.460;2023-04-25T05:20:15;9.23;;;3.30;;
78796;SDS011;68145;52.514;13.460;2023-04-25T05:25:10;9.35;;;3.78;;
78796;SDS011;68145;52.514;13.460;2023-04-25T05:27:36;8.40;;;3.63;;
78796;SDS011;68145;52.514;13.460;2023-04-25T05:30:02;6.97;;;3.22;;
78796;SDS011;68145;52.514;13.460;2023-04-25T05:32:29;7.82;;;3.58;;
78796;SDS011;68145;52.514;13.460;2023-04-25T05:34:55;5.47;;;3.45;;
78796;SDS011;68145;52.514;13.460;2023-04-25T05:37:21;7.45;;;4.30;;
78796;SDS011;68145;52.514;13.460;2023-04-25T05:39:47;6.25;;;3.50;;
78796;SDS011;68145;52.514;13.460;2023-04-25T05:42:13;6.72;;;3.35;;
78796;SDS011;68145;52.514;13.460;2023-04-25T05:44:39;9.13;;;4.40;;
78796;SDS011;68145;52.514;13.460;2023-04-25T05:47:05;11.15;;;6.05;;
78796;SDS011;68145;52.514;13.460;2023-04-25T05:49:31;7.00;;;3.50;;
78796;SDS011;68145;52.514;13.460;2023-04-25T05:51:57;6.97;;;3.72;;
78796;SDS011;68145;52.514;13.460;2023-04-25T05:54:23;7.30;;;3.83;;
78796;SDS011;68145;52.514;13.460;2023-04-25T05:56:50;5.40;;;3.50;;
78796;SDS011;68145;52.514;13.460;2023-04-25T05:59:16;8.48;;;4.10;;
78796;SDS011;68145;52.514;13.460;2023-04-25T06:01:42;10.25;;;4.35;;
78796;SDS011;68145;52.514;13.460;2023-04-25T06:04:08;6.75;;;4.40;;
78796;SDS011;68145;52.514;13.460;2023-04-25T06:06:34;11.05;;;4.40;;
78796;SDS011;68145;52.514;13.460;2023-04-25T06:09:00;7.45;;;4.47;;
78796;SDS011;68145;52.514;13.460;2023-04-25T06:11:26;9.45;;;3.97;;
78796;SDS011;68145;52.514;13.460;2023-04-25T06:13:52;9.68;;;4.25;;
78796;SDS011;68145;52.514;13.460;2023-04-25T06:16:19;7.38;;;4.30;;
78796;SDS011;68145;52.514;13.460;2023-04-25T06:18:45;6.80;;;3.63;;
78796;SDS011;68145;52.514;13.460;2023-04-25T06:21:11;8.65;;;4.40;;
78796;SDS011;68145;52.514;13.460;2023-04-25T06:23:37;10.52;;;4.18;;
78796;SDS011;68145;52.514;13.460;2023-04-25T06:26:03;9.00;;;4.13;;
78796;SDS011;68145;52.514;13.460;2023-04-25T06:28:29;6.68;;;3.90;;
78796;SDS011;68145;52.514;13.460;2023-04-25T06:30:55;9.93;;;4.43;;
78796;SDS011;68145;52.514;13.460;2023-04-25T06:33:21;6.97;;;4.07;;
78796;SDS011;68145;52.514;13.460;2023-04-25T06:35:49;9.93;;;4.85;;
78796;SDS011;68145;52.514;13.460;2023-04-25T06:38:15;7.45;;;3.97;;
78796;SDS011;68145;52.514;13.460;2023-04-25T06:40:41;6.80;;;3.78;;
78796;SDS011;68145;52.514;13.460;2023-04-25T06:43:07;9.13;;;3.95;;
78796;SDS011;68145;52.514;13.460;2023-04-25T06:45:33;11.45;;;4.07;;
78796;SDS011;68145;52.514;13.460;2023-04-25T06:47:59;6.72;;;4.13;;
78796;SDS011;68145;52.514;13.460;2023-04-25T06:50:25;7.43;;;4.20;;
78796;SDS011;68145;52.514;13.460;2023-04-25T06:52:52;6.53;;;4.13;;
78796;SDS011;68145;52.514;13.460;2023-04-25T06:55:18;6.97;;;4.30;;
78796;SDS011;68145;52.514;13.460;2023-04-25T06:57:44;6.75;;;4.28;;
78796;SDS011;68145;52.514;13.460;2023-04-25T07:00:10;7.50;;;4.00;;
78796;SDS011;68145;52.514;13.460;2023-04-25T07:02:36;8.80;;;3.97;;
78796;SDS011;68145;52.514;13.460;2023-04-25T07:05:03;8.77;;;3.85;;
78796;SDS011;68145;52.514;13.460;2023-04-25T07:07:29;9.13;;;4.25;;
78796;SDS011;68145;52.514;13.460;2023-04-25T07:09:56;8.75;;;4.22;;
78796;SDS011;68145;52.514;13.460;2023-04-25T07:12:22;6.57;;;4.15;;
78796;SDS011;68145;52.514;13.460;2023-04-25T07:14:48;8.50;;;4.00;;
78796;SDS011;68145;52.514;13.460;2023-04-25T07:17:14;6.20;;;3.88;;
78796;SDS011;68145;52.514;13.460;2023-04-25T07:19:40;8.43;;;3.85;;
78796;SDS011;68145;52.514;13.460;2023-04-25T07:22:07;7.45;;;4.00;;
78796;SDS011;68145;52.514;13.460;2023-04-25T07:24:35;7.13;;;4.07;;
78796;SDS011;68145;52.514;13.460;2023-04-25T07:27:01;8.60;;;4.97;;
78796;SDS011;68145;52.514;13.460;2023-04-25T07:29:28;9.73;;;4.00;;
78796;SDS011;68145;52.514;13.460;2023-04-25T07:31:55;9.05;;;4.30;;
78796;SDS011;68145;52.514;13.460;2023-04-25T07:34:21;11.05;;;4.18;;
78796;SDS011;68145;52.514;13.460;2023-04-25T07:36:47;8.15;;;3.80;;
78796;SDS011;68145;52.514;13.460;2023-04-25T07:39:13;8.48;;;4.25;;
78796;SDS011;68145;52.514;13.460;2023-04-25T07:41:39;6.55;;;3.55;;
78796;SDS011;68145;52.514;13.460;2023-04-25T07:44:05;10.48;;;4.43;;
78796;SDS011;68145;52.514;13.460;2023-04-25T07:46:31;10.68;;;4.28;;
78796;SDS011;68145;52.514;13.460;2023-04-25T07:48:57;9.45;;;4.25;;
78796;SDS011;68145;52.514;13.460;2023-04-25T07:51:23;8.75;;;3.65;;
78796;SDS011;68145;52.514;13.460;2023-04-25T07:53:50;11.00;;;4.75;;
78796;SDS011;68145;52.514;13.460;2023-04-25T07:56:16;12.05;;;4.88;;
78796;SDS011;68145;52.514;13.460;2023-04-25T07:58:43;8.15;;;3.63;;
78796;SDS011;68145;52.514;13.460;2023-04-25T08:01:09;9.30;;;3.70;;
78796;SDS011;68145;52.514;13.460;2023-04-25T08:03:35;9.90;;;3.92;;
78796;SDS011;68145;52.514;13.460;2023-04-25T08:06:01;14.85;;;4.40;;
78796;SDS011;68145;52.514;13.460;2023-04-25T08:08:27;13.45;;;4.25;;
78796;SDS011;68145;52.514;13.460;2023-04-25T08:10:53;17.05;;;4.18;;
78796;SDS011;68145;52.514;13.460;2023-04-25T08:13:19;9.30;;;3.85;;
78796;SDS011;68145;52.514;13.460;2023-04-25T08:15:45;11.05;;;3.80;;
78796;SDS011;68145;52.514;13.460;2023-04-25T08:18:11;9.57;;;4.10;;
78796;SDS011;68145;52.514;13.460;2023-04-25T08:20:37;8.90;;;3.28;;
78796;SDS011;68145;52.514;13.460;2023-04-25T08:23:03;14.80;;;5.13;;
78796;SDS011;68145;52.514;13.460;2023-04-25T08:25:29;12.20;;;3.72;;
78796;SDS011;68145;52.514;13.460;2023-04-25T08:27:56;12.60;;;3.72;;
78796;SDS011;68145;52.514;13.460;2023-04-25T08:30:24;14.07;;;3.60;;
78796;SDS011;68145;52.514;13.460;2023-04-25T08:32:50;9.35;;;3.38;;
78796;SDS011;68145;52.514;13.460;2023-04-25T08:35:16;12.02;;;3.72;;
78796;SDS011;68145;52.514;13.460;2023-04-25T08:37:42;11.43;;;3.97;;
78796;SDS011;68145;52.514;13.460;2023-04-25T08:40:09;13.25;;;3.67;;
78796;SDS011;68145;52.514;13.460;2023-04-25T08:42:37;14.10;;;3.40;;
78796;SDS011;68145;52.514;13.460;2023-04-25T08:45:03;13.38;;;3.78;;
78796;SDS011;68145;52.514;13.460;2023-04-25T08:47:30;10.38;;;3.63;;
78796;SDS011;68145;52.514;13.460;2023-04-25T08:49:59;10.10;;;3.28;;
78796;SDS011;68145;52.514;13.460;2023-04-25T08:52:27;10.88;;;3.35;;
78796;SDS011;68145;52.514;13.460;2023-04-25T08:54:53;13.18;;;4.50;;
78796;SDS011;68145;52.514;13.460;2023-04-25T08:57:20;15.18;;;3.85;;
78796;SDS011;68145;52.514;13.460;2023-04-25T08:59:47;8.93;;;3.50;;
78796;SDS011;68145;52.514;13.460;2023-04-25T09:02:13;13.35;;;3.80;;
78796;SDS011;68145;52.514;13.460;2023-04-25T09:04:44;12.70;;;4.18;;
78796;SDS011;68145;52.514;13.460;2023-04-25T09:07:10;9.32;;;2.97;;
78796;SDS011;68145;52.514;13.460;2023-04-25T09:09:36;12.80;;;3.17;;
78796;SDS011;68145;52.514;13.460;2023-04-25T09:12:02;8.15;;;3.00;;
78796;SDS011;68145;52.514;13.460;2023-04-25T09:14:28;11.38;;;3.33;;
78796;SDS011;68145;52.514;13.460;2023-04-25T09:19:35;8.13;;;3.13;;
78796;SDS011;68145;52.514;13.460;2023-04-25T09:22:04;15.60;;;3.13;;
78796;SDS011;68145;52.514;13.460;2023-04-25T09:24:35;13.57;;;2.83;;
78796;SDS011;68145;52.514;13.460;2023-04-25T09:27:08;9.43;;;2.80;;
78796;SDS011;68145;52.514;13.460;2023-04-25T09:29:35;13.57;;;3.28;;
78796;SDS011;68145;52.514;13.460;2023-04-25T09:34:28;10.43;;;2.33;;
78796;SDS011;68145;52.514;13.460;2023-04-25T09:36:54;9.98;;;2.92;;
78796;SDS011;68145;52.514;13.460;2023-04-25T09:39:21;10.15;;;2.88;;
78796;SDS011;68145;52.514;13.460;2023-04-25T09:41:53;10.45;;;2.72;;
78796;SDS011;68145;52.514;13.460;2023-04-25T09:44:22;10.68;;;2.88;;
78796;SDS011;68145;52.514;13.460;2023-04-25T09:46:52;12.73;;;3.60;;
78796;SDS011;68145;52.514;13.460;2023-04-25T09:49:22;11.43;;;2.60;;
78796;SDS011;68145;52.514;13.460;2023-04-25T09:51:58;14.10;;;3.22;;
78796;SDS011;68145;52.514;13.460;2023-04-25T09:54:24;14.18;;;3.55;;
78796;SDS011;68145;52.514;13.460;2023-04-25T09:56:51;11.90;;;2.83;;
78796;SDS011;68145;52.514;13.460;2023-04-25T09:59:21;8.68;;;2.47;;
78796;SDS011;68145;52.514;13.460;2023-04-25T10:01:50;10.00;;;2.47;;
78796;SDS011;68145;52.514;13.460;2023-04-25T10:04:22;8.95;;;2.78;;
78796;SDS011;68145;52.514;13.460;2023-04-25T10:06:51;7.40;;;2.33;;
78796;SDS011;68145;52.514;13.460;2023-04-25T10:09:21;5.43;;;2.40;;
78796;SDS011;68145;52.514;13.460;2023-04-25T10:11:50;6.15;;;2.28;;
78796;SDS011;68145;52.514;13.460;2023-04-25T10:14:17;10.07;;;3.15;;
78796;SDS011;68145;52.514;13.460;2023-04-25T10:16:44;6.50;;;2.58;;
78796;SDS011;68145;52.514;13.460;2023-04-25T10:19:10;9.88;;;2.53;;
78796;SDS011;68145;52.514;13.460;2023-04-25T10:21:40;11.13;;;2.95;;
78796;SDS011;68145;52.514;13.460;2023-04-25T10:24:10;9.02;;;2.45;;
78796;SDS011;68145;52.514;13.460;2023-04-25T10:26:37;6.70;;;2.63;;
78796;SDS011;68145;52.514;13.460;2023-04-25T10:29:03;10.57;;;2.42;;
78796;SDS011;68145;52.514;13.460;2023-04-25T10:31:29;9.57;;;2.90;;
78796;SDS011;68145;52.514;13.460;2023-04-25T10:33:56;5.88;;;2.05;;
78796;SDS011;68145;52.514;13.460;2023-04-25T10:36:22;9.10;;;2.70;;
78796;SDS011;68145;52.514;13.460;2023-04-25T10:38:52;8.00;;;2.63;;
78796;SDS011;68145;52.514;13.460;2023-04-25T10:41:19;6.15;;;2.38;;
78796;SDS011;68145;52.514;13.460;2023-04-25T10:43:46;11.10;;;3.08;;
78796;SDS011;68145;52.514;13.460;2023-04-25T10:49:00;9.23;;;2.58;;
78796;SDS011;68145;52.514;13.460;2023-04-25T10:51:35;9.43;;;2.50;;
78796;SDS011;68145;52.514;13.460;2023-04-25T10:54:05;11.38;;;3.15;;
78796;SDS011;68145;52.514;13.460;2023-04-25T10:59:14;9.43;;;2.55;;
78796;SDS011;68145;52.514;13.460;2023-04-25T11:04:06;8.32;;;3.40;;
78796;SDS011;68145;52.514;13.460;2023-04-25T11:09:29;8.88;;;2.95;;
78796;SDS011;68145;52.514;13.460;2023-04-25T11:11:56;10.25;;;3.00;;
78796;SDS011;68145;52.514;13.460;2023-04-25T11:14:23;7.45;;;2.92;;
78796;SDS011;68145;52.514;13.460;2023-04-25T11:16:56;8.48;;;2.58;;
78796;SDS011;68145;52.514;13.460;2023-04-25T11:19:22;7.43;;;2.60;;
78796;SDS011;68145;52.514;13.460;2023-04-25T11:21:49;9.27;;;2.47;;
78796;SDS011;68145;52.514;13.460;2023-04-25T11:24:18;8.13;;;2.50;;
78796;SDS011;68145;52.514;13.460;2023-04-25T11:26:46;5.47;;;2.63;;
78796;SDS011;68145;52.514;13.460;2023-04-25T11:29:13;8.18;;;2.30;;
78796;SDS011;68145;52.514;13.460;2023-04-25T11:31:42;13.13;;;2.72;;
78796;SDS011;68145;52.514;13.460;2023-04-25T11:34:08;7.30;;;2.15;;
78796;SDS011;68145;52.514;13.460;2023-04-25T11:36:34;8.68;;;2.78;;
78796;SDS011;68145;52.514;13.460;2023-04-25T11:39:02;5.03;;;2.50;;
78796;SDS011;68145;52.514;13.460;2023-04-25T11:41:28;14.00;;;2.95;;
78796;SDS011;68145;52.514;13.460;2023-04-25T11:43:54;5.50;;;2.53;;
78796;SDS011;68145;52.514;13.460;2023-04-25T11:46:21;6.40;;;2.20;;
78796;SDS011;68145;52.514;13.460;2023-04-25T11:48:47;10.25;;;2.30;;
78796;SDS011;68145;52.514;13.460;2023-04-25T11:51:15;6.30;;;2.10;;
78796;SDS011;68145;52.514;13.460;2023-04-25T11:53:41;7.05;;;2.22;;
78796;SDS011;68145;52.514;13.460;2023-04-25T11:56:11;7.97;;;2.15;;
78796;SDS011;68145;52.514;13.460;2023-04-25T11:58:56;8.73;;;2.42;;
78796;SDS011;68145;52.514;13.460;2023-04-25T12:01:26;10.50;;;2.47;;
78796;SDS011;68145;52.514;13.460;2023-04-25T12:03:52;6.78;;;2.55;;
78796;SDS011;68145;52.514;13.460;2023-04-25T12:06:18;6.60;;;2.42;;
78796;SDS011;68145;52.514;13.460;2023-04-25T12:09:03;7.45;;;2.47;;
78796;SDS011;68145;52.514;13.460;2023-04-25T12:11:30;6.20;;;1.88;;
78796;SDS011;68145;52.514;13.460;2023-04-25T12:14:02;6.57;;;2.50;;
78796;SDS011;68145;52.514;13.460;2023-04-25T12:16:30;6.47;;;2.63;;
78796;SDS011;68145;52.514;13.460;2023-04-25T12:19:05;11.52;;;2.75;;
78796;SDS011;68145;52.514;13.460;2023-04-25T12:21:32;7.10;;;2.10;;
78796;SDS011;68145;52.514;13.460;2023-04-25T12:24:15;7.10;;;2.38;;
78796;SDS011;68145;52.514;13.460;2023-04-25T12:29:20;6.97;;;2.25;;
78796;SDS011;68145;52.514;13.460;2023-04-25T12:31:47;5.63;;;2.13;;
78796;SDS011;68145;52.514;13.460;2023-04-25T12:34:13;6.28;;;2.45;;
78796;SDS011;68145;52.514;13.460;2023-04-25T12:36:39;7.00;;;1.98;;
78796;SDS011;68145;52.514;13.460;2023-04-25T12:39:05;5.07;;;2.33;;
78796;SDS011;68145;52.514;13.460;2023-04-25T12:41:32;11.77;;;2.80;;
78796;SDS011;68145;52.514;13.460;2023-04-25T12:43:58;7.65;;;2.17;;
78796;SDS011;68145;52.514;13.460;2023-04-25T12:46:24;7.15;;;2.67;;
78796;SDS011;68145;52.514;13.460;2023-04-25T12:48:50;8.25;;;3.00;;
78796;SDS011;68145;52.514;13.460;2023-04-25T12:51:16;8.50;;;2.28;;
78796;SDS011;68145;52.514;13.460;2023-04-25T12:53:42;6.53;;;1.90;;
78796;SDS011;68145;52.514;13.460;2023-04-25T12:56:08;6.72;;;2.60;;
78796;SDS011;68145;52.514;13.460;2023-04-25T12:58:35;5.50;;;2.00;;
78796;SDS011;68145;52.514;13.460;2023-04-25T13:01:01;6.03;;;2.58;;
78796;SDS011;68145;52.514;13.460;2023-04-25T13:03:27;5.05;;;2.00;;
78796;SDS011;68145;52.514;13.460;2023-04-25T13:05:53;4.38;;;1.38;;
78796;SDS011;68145;52.514;13.460;2023-04-25T13:08:19;2.63;;;1.55;;
78796;SDS011;68145;52.514;13.460;2023-04-25T13:10:45;7.28;;;2.30;;
78796;SDS011;68145;52.514;13.460;2023-04-25T13:13:13;5.45;;;2.22;;
78796;SDS011;68145;52.514;13.460;2023-04-25T13:15:41;4.82;;;1.70;;
78796;SDS011;68145;52.514;13.460;2023-04-25T13:18:07;5.40;;;1.70;;
78796;SDS011;68145;52.514;13.460;2023-04-25T13:20:34;5.53;;;1.90;;
78796;SDS011;68145;52.514;13.460;2023-04-25T13:23:00;3.85;;;1.73;;
78796;SDS011;68145;52.514;13.460;2023-04-25T13:25:26;5.82;;;1.80;;
78796;SDS011;68145;52.514;13.460;2023-04-25T13:27:52;7.05;;;2.47;;
78796;SDS011;68145;52.514;13.460;2023-04-25T13:30:18;4.85;;;1.85;;
78796;SDS011;68145;52.514;13.460;2023-04-25T13:32:44;6.22;;;1.80;;
78796;SDS011;68145;52.514;13.460;2023-04-25T13:35:11;5.80;;;1.60;;
78796;SDS011;68145;52.514;13.460;2023-04-25T13:37:37;6.82;;;1.80;;
78796;SDS011;68145;52.514;13.460;2023-04-25T13:40:05;3.92;;;1.70;;
78796;SDS011;68145;52.514;13.460;2023-04-25T13:42:32;7.57;;;2.00;;
78796;SDS011;68145;52.514;13.460;2023-04-25T13:44:59;5.97;;;2.00;;
78796;SDS011;68145;52.514;13.460;2023-04-25T13:47:25;4.13;;;1.90;;
78796;SDS011;68145;52.514;13.460;2023-04-25T13:49:52;4.05;;;2.00;;
78796;SDS011;68145;52.514;13.460;2023-04-25T13:52:18;6.85;;;2.10;;
78796;SDS011;68145;52.514;13.460;2023-04-25T13:54:44;10.05;;;2.25;;
78796;SDS011;68145;52.514;13.460;2023-04-25T13:57:10;4.95;;;1.90;;
78796;SDS011;68145;52.514;13.460;2023-04-25T13:59:37;4.47;;;1.98;;
78796;SDS011;68145;52.514;13.460;2023-04-25T14:02:03;4.53;;;1.90;;
78796;SDS011;68145;52.514;13.460;2023-04-25T14:04:29;3.17;;;1.77;;
78796;SDS011;68145;52.514;13.460;2023-04-25T14:06:55;6.28;;;2.03;;
78796;SDS011;68145;52.514;13.460;2023-04-25T14:09:21;14.98;;;7.72;;
78796;SDS011;68145;52.514;13.460;2023-04-25T14:11:53;7.38;;;2.58;;
78796;SDS011;68145;52.514;13.460;2023-04-25T14:14:20;6.60;;;2.22;;
78796;SDS011;68145;52.514;13.460;2023-04-25T14:16:47;5.35;;;1.92;;
78796;SDS011;68145;52.514;13.460;2023-04-25T14:19:20;5.30;;;2.33;;
78796;SDS011;68145;52.514;13.460;2023-04-25T14:21:46;9.30;;;3.85;;
78796;SDS011;68145;52.514;13.460;2023-04-25T14:24:13;5.05;;;1.90;;
78796;SDS011;68145;52.514;13.460;2023-04-25T14:26:39;7.65;;;2.00;;
78796;SDS011;68145;52.514;13.460;2023-04-25T14:29:05;7.57;;;2.22;;
78796;SDS011;68145;52.514;13.460;2023-04-25T14:31:32;6.22;;;2.20;;
78796;SDS011;68145;52.514;13.460;2023-04-25T14:33:58;7.57;;;2.90;;
78796;SDS011;68145;52.514;13.460;2023-04-25T14:36:24;5.13;;;1.95;;
78796;SDS011;68145;52.514;13.460;2023-04-25T14:38:51;6.30;;;2.08;;
78796;SDS011;68145;52.514;13.460;2023-04-25T14:41:17;4.93;;;2.20;;
78796;SDS011;68145;52.514;13.460;2023-04-25T14:43:43;6.03;;;2.38;;
78796;SDS011;68145;52.514;13.460;2023-04-25T14:46:10;6.80;;;2.28;;
78796;SDS011;68145;52.514;13.460;2023-04-25T14:48:36;4.15;;;1.83;;
78796;SDS011;68145;52.514;13.460;2023-04-25T14:51:02;4.53;;;1.90;;
78796;SDS011;68145;52.514;13.460;2023-04-25T14:53:28;9.20;;;2.85;;
78796;SDS011;68145;52.514;13.460;2023-04-25T14:55:54;5.63;;;1.80;;